METAR Data
IDs: Format: Raw Decoded Include TAF

Data at: 1217 UTC 23 Mar 2019

NZWN 231200Z AUTO 01008KT 9999 NCD 16/14 Q1022 NOSIG
NZWN 231130Z AUTO 02008KT 9999 NCD 16/14 Q1022 NOSIG
NZWN 231100Z AUTO 03005KT 9999 NCD 16/14 Q1022 NOSIG
NZWN 231030Z AUTO 03006KT 9999 NCD 17/15 Q1022 NOSIG
NZWN 231000Z AUTO 02006KT 9999 NCD 17/15 Q1022 NOSIG
NZWN 230930Z AUTO 01007KT 9999 NCD 17/14 Q1022 NOSIG

TAF NZWN 231104Z 2312/2412 03005KT 9999 FEW020
  BECMG 2318/2320 36015KT
  BECMG 2322/2400 36018G30KT